Time;durP1;ratioP1;P1;durP2;ratioP2;P2;SDS_P1;SDS_P2;PMS_P1;PMS_P2;Temp;Humidity;BMP_temperature;BMP_pressure;BME280_temperature;BME280_humidity;BME280_pressure;Samples;Min_cycle;Max_cycle;Signal;HPM_P1;HPM_P2
2022/08/28 00:02:25;;;;;;;8.35;4.45;;;;;;;14.34;100.00;101507.16;5007637;28;20105;-81
2022/08/28 00:04:51;;;;;;;7.03;4.22;;;;;;;14.38;100.00;101519.31;5006401;28;20042;-82
2022/08/28 00:07:17;;;;;;;9.40;4.20;;;;;;;14.28;100.00;101497.06;4987325;28;20156;-82
2022/08/28 00:09:43;;;;;;;11.82;5.00;;;;;;;14.35;100.00;101514.25;5003198;28;20030;-81
2022/08/28 00:12:08;;;;;;;8.48;5.18;;;;;;;14.30;100.00;101513.97;4986797;28;20254;-82
2022/08/28 00:14:34;;;;;;;8.13;4.13;;;;;;;14.32;100.00;101522.75;5009480;28;20033;-81
2022/08/28 00:17:00;;;;;;;8.48;4.60;;;;;;;14.28;100.00;101524.94;4975132;28;20068;-82
2022/08/28 00:19:25;;;;;;;8.05;5.03;;;;;;;14.21;100.00;101504.22;5009148;28;20034;-82
2022/08/28 00:21:51;;;;;;;7.97;4.78;;;;;;;14.34;100.00;101522.53;5002376;28;20372;-82
2022/08/28 00:24:17;;;;;;;9.23;4.65;;;;;;;14.25;100.00;101494.72;5010207;28;20064;-82
2022/08/28 00:29:28;;;;;;;8.30;4.57;;;;;;;14.24;100.00;101476.84;5006565;28;20419;-82
2022/08/28 00:31:55;;;;;;;8.43;4.30;;;;;;;14.45;100.00;101511.31;4994166;28;20026;-82
2022/08/28 00:34:24;;;;;;;8.05;4.35;;;;;;;14.48;100.00;101517.19;5011735;28;20566;-81
2022/08/28 00:36:49;;;;;;;7.13;3.80;;;;;;;14.36;100.00;101507.81;4985071;28;20030;-81
2022/08/28 00:39:15;;;;;;;6.95;3.83;;;;;;;14.34;100.00;101498.19;5019523;28;20273;-81
2022/08/28 00:41:42;;;;;;;7.10;4.43;;;;;;;14.36;100.00;101506.97;4994950;28;20117;-81
2022/08/28 00:44:15;;;;;;;5.72;3.55;;;;;;;14.30;100.00;101513.97;4962218;28;20041;-81
2022/08/28 00:46:43;;;;;;;7.90;3.97;;;;;;;14.22;100.00;101512.16;5006632;28;20038;-81
2022/08/28 00:49:09;;;;;;;7.50;4.80;;;;;;;14.19;100.00;101509.00;4991937;28;20048;-80
2022/08/28 00:54:21;;;;;;;8.10;4.43;;;;;;;14.14;100.00;101508.69;4996255;28;20044;-80
2022/08/28 00:56:47;;;;;;;7.88;4.57;;;;;;;14.13;100.00;101513.25;4966895;28;20118;-83
2022/08/28 00:59:16;;;;;;;6.80;3.78;;;;;;;14.10;100.00;101502.78;4990355;28;20053;-83
2022/08/28 01:01:45;;;;;;;7.63;3.78;;;;;;;14.14;100.00;101514.94;4977539;28;20052;-80
2022/08/28 01:04:16;;;;;;;5.78;3.55;;;;;;;14.10;100.00;101507.34;4970742;28;20121;-82
2022/08/28 01:06:44;;;;;;;8.40;4.40;;;;;;;14.07;100.00;101506.69;4988660;28;20062;-83
2022/08/28 01:09:14;;;;;;;8.77;4.28;;;;;;;14.11;100.00;101503.66;4992043;28;20112;-81
2022/08/28 01:11:42;;;;;;;8.55;4.82;;;;;;;14.10;100.00;101504.66;4992627;28;20066;-81
2022/08/28 01:14:10;;;;;;;7.28;4.30;;;;;;;14.10;100.00;101499.25;5009632;28;20048;-81
2022/08/28 01:16:36;;;;;;;10.45;4.22;;;;;;;14.05;100.00;101486.25;4979983;28;20026;-81
2022/08/28 01:19:05;;;;;;;6.60;3.78;;;;;;;14.16;100.00;101499.38;5008998;28;20030;-81
2022/08/28 01:21:35;;;;;;;7.43;4.53;;;;;;;14.19;100.00;101503.59;4973928;28;20030;-81
2022/08/28 01:24:10;;;;;;;10.38;4.45;;;;;;;14.09;100.00;101487.59;5011122;28;20487;-81
2022/08/28 01:26:37;;;;;;;6.72;4.30;;;;;;;14.20;100.00;101502.53;4991127;28;20046;-81
2022/08/28 01:29:03;;;;;;;8.73;4.90;;;;;;;14.01;100.00;101456.03;4969657;28;20026;-81
2022/08/28 01:31:30;;;;;;;8.38;4.85;;;;;;;14.32;100.00;101503.81;5009076;28;20037;-81
2022/08/28 01:33:58;;;;;;;7.43;4.82;;;;;;;14.37;100.00;101506.81;5007537;28;20060;-81
2022/08/28 01:36:24;;;;;;;7.50;4.95;;;;;;;14.41;100.00;101505.41;5009095;28;20309;-81
2022/08/28 01:38:55;;;;;;;7.85;5.15;;;;;;;14.45;100.00;101508.59;4972598;28;20050;-81
2022/08/28 01:41:21;;;;;;;9.93;4.93;;;;;;;14.52;100.00;101512.25;5007674;28;20088;-81
2022/08/28 01:43:47;;;;;;;10.07;5.72;;;;;;;14.56;100.00;101507.34;5009213;28;20030;-81
2022/08/28 01:46:13;;;;;;;1872.30;396.35;;;;;;;14.38;100.00;101467.91;4993760;28;20484;-81
2022/08/28 01:48:41;;;;;;;9.50;5.43;;;;;;;14.58;100.00;101503.44;5007119;28;20068;-81
2022/08/28 01:51:08;;;;;;;9.05;5.70;;;;;;;14.59;100.00;101512.41;4989913;28;20476;-82
2022/08/28 01:53:34;;;;;;;9.85;5.65;;;;;;;14.54;100.00;101506.69;4977065;28;20092;-81
2022/08/28 01:56:03;;;;;;;14.15;4.88;;;;;;;14.54;100.00;101509.41;5008434;28;20500;-81
2022/08/28 01:58:29;;;;;;;10.52;5.30;;;;;;;14.48;100.00;101498.25;4970810;28;20041;-81
2022/08/28 02:00:54;;;;;;;10.60;5.60;;;;;;;14.47;100.00;101487.59;5012175;28;20026;-81
2022/08/28 02:03:21;;;;;;;11.80;5.25;;;;;;;14.56;100.00;101499.22;5008965;28;20033;-81
2022/08/28 02:05:46;;;;;;;8.27;4.63;;;;;;;14.57;100.00;101512.56;4981004;28;20308;-81
2022/08/28 02:08:13;;;;;;;10.18;5.22;;;;;;;14.47;100.00;101499.28;5011713;28;20541;-81
2022/08/28 02:10:39;;;;;;;10.32;4.72;;;;;;;14.46;100.00;101505.69;5004387;28;20033;-81
2022/08/28 02:13:06;;;;;;;10.57;5.55;;;;;;;14.41;100.00;101512.69;4994526;28;20049;-81
2022/08/28 02:15:34;;;;;;;9.32;5.03;;;;;;;14.33;100.00;101507.34;5003739;28;20073;-81
2022/08/28 02:17:59;;;;;;;10.93;4.97;;;;;;;14.28;100.00;101505.19;4980239;28;20542;-81
2022/08/28 02:20:27;;;;;;;9.13;5.53;;;;;;;14.27;100.00;101517.88;5011495;28;20053;-81
2022/08/28 02:22:53;;;;;;;9.38;4.90;;;;;;;14.22;100.00;101514.03;4984587;28;20080;-81
2022/08/28 02:25:19;;;;;;;10.60;5.25;;;;;;;14.19;100.00;101517.94;5005363;28;20528;-81
2022/08/28 02:27:48;;;;;;;11.05;5.45;;;;;;;14.15;100.00;101508.50;4990254;28;20069;-81
2022/08/28 02:30:15;;;;;;;10.20;5.07;;;;;;;14.13;100.00;101518.66;5003710;28;20045;-81
2022/08/28 02:32:42;;;;;;;10.50;5.20;;;;;;;14.13;100.00;101520.50;4998050;28;20117;-81
2022/08/28 02:35:09;;;;;;;8.68;4.45;;;;;;;14.11;100.00;101519.88;5011244;28;20090;-81
2022/08/28 02:37:36;;;;;;;13.00;5.57;;;;;;;14.08;100.00;101530.03;4966607;28;20117;-81
2022/08/28 02:40:02;;;;;;;12.23;5.28;;;;;;;14.04;100.00;101525.16;4989352;28;20030;-80
2022/08/28 02:42:28;;;;;;;11.70;5.15;;;;;;;14.06;100.00;101521.25;4973400;28;20046;-81
2022/08/28 02:44:54;;;;;;;9.73;5.60;;;;;;;14.08;100.00;101521.06;5012549;28;20022;-81
2022/08/28 02:47:19;;;;;;;10.90;5.55;;;;;;;14.02;100.00;101514.50;5010231;28;20487;-81
2022/08/28 02:49:45;;;;;;;16.58;5.43;;;;;;;14.05;100.00;101519.56;4994766;28;20034;-81
2022/08/28 02:52:11;;;;;;;0.20;0.20;;;;;;;14.10;100.00;101520.88;5004728;28;20041;-80
2022/08/28 02:54:38;;;;;;;128.15;82.32;;;;;;;13.98;100.00;101513.19;4993540;28;20031;-81
2022/08/28 02:57:06;;;;;;;8.85;4.72;;;;;;;14.05;100.00;101527.69;5008218;28;20101;-81
2022/08/28 02:59:33;;;;;;;9.75;5.45;;;;;;;14.04;100.00;101517.88;4989899;28;20066;-81
2022/08/28 03:02:00;;;;;;;13.48;5.63;;;;;;;14.02;100.00;101525.31;5012266;28;20065;-81
2022/08/28 03:04:25;;;;;;;10.80;5.57;;;;;;;14.02;100.00;101522.59;4994556;28;20041;-81
2022/08/28 03:06:51;;;;;;;11.52;5.63;;;;;;;14.03;100.00;101526.19;4995094;28;20029;-81
2022/08/28 03:09:16;;;;;;;9.50;6.22;;;;;;;13.98;100.00;101515.91;5009327;28;21121;-81
2022/08/28 03:11:42;;;;;;;8.05;5.35;;;;;;;13.93;100.00;101510.19;4974966;28;20419;-81
2022/08/28 03:14:07;;;;;;;10.20;5.50;;;;;;;14.04;100.00;101531.38;5009970;28;20088;-81
2022/08/28 03:16:33;;;;;;;10.45;5.93;;;;;;;14.00;100.00;101532.78;5008131;28;20384;-81
2022/08/28 03:18:59;;;;;;;11.80;5.80;;;;;;;13.92;100.00;101513.91;4989451;28;20230;-81
2022/08/28 03:21:24;;;;;;;10.40;5.70;;;;;;;13.97;100.00;101526.88;5011701;28;20037;-81
2022/08/28 03:23:50;;;;;;;11.73;6.63;;;;;;;13.86;100.00;101520.03;4994923;28;20436;-81
2022/08/28 03:26:19;;;;;;;11.95;6.10;;;;;;;13.91;100.00;101530.31;5010614;28;20040;-81
2022/08/28 03:28:50;;;;;;;12.30;5.95;;;;;;;13.84;100.00;101522.09;4996023;28;20120;-80
2022/08/28 03:31:18;;;;;;;11.82;6.03;;;;;;;13.82;100.00;101521.41;5001935;28;20034;-81
2022/08/28 03:33:45;;;;;;;10.02;5.97;;;;;;;13.84;100.00;101527.50;5000104;28;20041;-82
2022/08/28 03:36:14;;;;;;;12.18;5.63;;;;;;;13.74;100.00;101510.66;4995657;28;20085;-81
2022/08/28 03:38:40;;;;;;;12.77;6.32;;;;;;;13.81;100.00;101531.41;5006273;28;20464;-81
2022/08/28 03:41:11;;;;;;;11.18;5.72;;;;;;;13.81;100.00;101522.41;4995324;28;20026;-81
2022/08/28 03:43:36;;;;;;;13.30;6.30;;;;;;;13.77;100.00;101521.09;5007428;28;20396;-82
2022/08/28 03:46:04;;;;;;;11.77;6.15;;;;;;;13.76;100.00;101525.69;4993519;28;21735;-81
2022/08/28 03:48:33;;;;;;;13.20;6.43;;;;;;;13.73;100.00;101525.16;4970877;28;20137;-81
2022/08/28 03:50:59;;;;;;;15.15;6.25;;;;;;;13.60;100.00;101510.41;4988934;28;20106;-81
2022/08/28 03:53:28;;;;;;;11.43;5.88;;;;;;;13.67;100.00;101520.50;5008805;28;20137;-80
2022/08/28 03:55:54;;;;;;;10.57;5.95;;;;;;;13.58;100.00;101512.44;4999960;28;20471;-81
2022/08/28 03:58:22;;;;;;;15.05;6.57;;;;;;;13.60;100.00;101529.31;4971654;28;20076;-81
2022/08/28 04:00:49;;;;;;;11.63;6.47;;;;;;;13.44;100.00;101509.63;4983375;28;20046;-81
2022/08/28 04:03:14;;;;;;;13.40;6.53;;;;;;;13.51;100.00;101518.72;5007666;28;20038;-80
2022/08/28 04:05:41;;;;;;;13.90;6.05;;;;;;;13.45;100.00;101508.63;4993601;28;20047;-81
2022/08/28 04:08:08;;;;;;;13.80;6.53;;;;;;;13.44;100.00;101509.63;4973782;28;20040;-80
2022/08/28 04:10:35;;;;;;;17.08;7.88;;;;;;;13.38;100.00;101511.16;5002783;28;20623;-80
2022/08/28 04:13:02;;;;;;;13.95;6.25;;;;;;;13.46;100.00;101524.63;5008154;28;20459;-81
2022/08/28 04:15:28;;;;;;;14.40;6.65;;;;;;;13.35;100.00;101504.25;5002441;28;20038;-80
2022/08/28 04:17:53;;;;;;;12.15;6.53;;;;;;;13.49;100.00;101526.16;4988677;28;20464;-80
2022/08/28 04:20:19;;;;;;;12.48;6.88;;;;;;;13.43;100.00;101525.00;5007820;28;20033;-80
2022/08/28 04:22:48;;;;;;;13.63;6.85;;;;;;;13.32;100.00;101511.88;4974276;28;20062;-80
2022/08/28 04:25:14;;;;;;;12.43;6.70;;;;;;;13.44;100.00;101528.53;4990554;28;20376;-80
2022/08/28 04:27:45;;;;;;;12.98;6.28;;;;;;;13.44;100.00;101525.81;4972613;28;20125;-80
2022/08/28 04:30:11;;;;;;;13.23;7.10;;;;;;;13.38;100.00;101516.56;5009045;28;20501;-80
2022/08/28 04:32:38;;;;;;;13.32;6.30;;;;;;;13.44;100.00;101523.13;4994560;28;20037;-81
2022/08/28 04:35:05;;;;;;;15.35;7.60;;;;;;;13.43;100.00;101522.28;5010655;28;20482;-80
2022/08/28 04:37:31;;;;;;;17.77;7.47;;;;;;;13.39;100.00;101513.72;4973784;28;20038;-80
2022/08/28 04:39:57;;;;;;;13.90;6.57;;;;;;;13.41;100.00;101529.72;4993883;28;20522;-80
2022/08/28 04:42:23;;;;;;;19.70;8.02;;;;;;;13.36;100.00;101516.75;4973942;28;20042;-80
2022/08/28 04:44:49;;;;;;;15.52;7.97;;;;;;;13.37;100.00;101531.09;5002685;28;20072;-79
2022/08/28 04:47:15;;;;;;;14.52;7.65;;;;;;;13.29;100.00;101521.19;5011375;28;20102;-80
2022/08/28 04:49:41;;;;;;;16.13;7.70;;;;;;;13.25;100.00;101522.50;5012336;28;20034;-80
2022/08/28 04:52:10;;;;;;;19.48;7.72;;;;;;;13.23;100.00;101521.00;4991547;28;20040;-79
2022/08/28 04:54:35;;;;;;;16.52;8.20;;;;;;;13.30;100.00;101530.13;5008604;28;20034;-79
2022/08/28 04:57:01;;;;;;;14.90;6.88;;;;;;;13.24;100.00;101520.81;4998856;28;20030;-79
2022/08/28 04:59:28;;;;;;;15.48;8.30;;;;;;;13.28;100.00;101524.88;5008626;28;20526;-79
2022/08/28 05:01:54;;;;;;;18.15;8.75;;;;;;;13.18;100.00;101514.25;4982420;28;20361;-79
2022/08/28 05:04:19;;;;;;;25.00;7.78;;;;;;;13.22;100.00;101517.44;5008353;28;20030;-79
2022/08/28 05:06:50;;;;;;;18.33;8.15;;;;;;;13.16;100.00;101519.00;4966137;28;20472;-79
2022/08/28 05:09:18;;;;;;;18.00;7.50;;;;;;;13.21;100.00;101526.56;4987450;28;20093;-79
2022/08/28 05:11:44;;;;;;;19.67;8.50;;;;;;;13.19;100.00;101529.44;4967429;28;20062;-79
2022/08/28 05:14:10;;;;;;;23.48;8.80;;;;;;;13.19;100.00;101524.03;4993013;28;20416;-79
2022/08/28 05:16:55;;;;;;;20.75;9.30;;;;;;;13.12;100.00;101511.41;4990100;28;20117;-80
2022/08/28 05:19:21;;;;;;;18.45;7.20;;;;;;;13.18;100.00;101525.06;5010973;28;20122;-80
2022/08/28 05:21:47;;;;;;;21.20;8.80;;;;;;;13.16;100.00;101528.97;5009552;28;20038;-80
2022/08/28 05:24:13;;;;;;;20.58;7.80;;;;;;;12.98;100.00;101502.19;4994139;28;20041;-80
2022/08/28 05:26:39;;;;;;;19.80;8.80;;;;;;;13.14;100.00;101510.22;4996779;28;20052;-80
2022/08/28 05:29:06;;;;;;;22.10;9.40;;;;;;;13.19;100.00;101523.19;4970317;28;20472;-80
2022/08/28 05:31:32;;;;;;;25.90;9.30;;;;;;;13.06;100.00;101512.94;5011803;28;20033;-80
2022/08/28 05:33:59;;;;;;;22.05;8.60;;;;;;;13.14;100.00;101526.41;5009811;28;20033;-79
2022/08/28 05:36:25;;;;;;;19.95;8.25;;;;;;;13.13;100.00;101530.16;4984593;28;20038;-80
2022/08/28 05:38:55;;;;;;;20.73;9.45;;;;;;;13.07;100.00;101530.84;4979320;28;20076;-80
2022/08/28 05:41:22;;;;;;;20.80;8.63;;;;;;;13.10;100.00;101538.59;5012871;28;20042;-79
2022/08/28 05:43:48;;;;;;;27.58;9.25;;;;;;;13.13;100.00;101538.25;5011524;28;20030;-79
2022/08/28 05:46:15;;;;;;;17.88;8.40;;;;;;;13.14;100.00;101537.22;4996808;28;20384;-80
2022/08/28 05:48:41;;;;;;;24.00;9.32;;;;;;;13.06;100.00;101528.31;4981037;28;20038;-79
2022/08/28 05:51:09;;;;;;;21.77;9.35;;;;;;;13.10;100.00;101545.88;5009104;28;20390;-79
2022/08/28 05:53:38;;;;;;;21.55;9.25;;;;;;;13.10;100.00;101538.59;5008479;28;20069;-79
2022/08/28 05:56:04;;;;;;;22.40;9.35;;;;;;;13.04;100.00;101541.97;4971568;28;20052;-80
2022/08/28 05:58:39;;;;;;;22.67;8.60;;;;;;;13.07;100.00;101543.47;5011872;28;20112;-79
2022/08/28 06:01:08;;;;;;;24.02;9.52;;;;;;;13.10;100.00;101541.31;4976675;28;20516;-79
2022/08/28 06:03:34;;;;;;;19.30;9.27;;;;;;;13.13;100.00;101550.91;5004904;28;20030;-80
2022/08/28 06:06:00;;;;;;;23.25;9.63;;;;;;;13.13;100.00;101537.41;5005931;28;20037;-80
2022/08/28 06:08:27;;;;;;;22.20;8.77;;;;;;;13.18;100.00;101540.44;4993238;28;20041;-80
2022/08/28 06:10:53;;;;;;;20.90;9.27;;;;;;;13.18;100.00;101543.13;4992322;28;20088;-80
2022/08/28 06:13:18;;;;;;;21.92;8.25;;;;;;;13.22;100.00;101540.91;5011817;28;20038;-80
2022/08/28 06:15:45;;;;;;;23.92;9.13;;;;;;;13.22;100.00;101539.06;5009396;28;20089;-80
2022/08/28 06:18:11;;;;;;;25.65;9.45;;;;;;;13.28;100.00;101543.78;5008717;28;20068;-80
2022/08/28 06:20:40;;;;;;;17.45;7.93;;;;;;;13.29;100.00;101539.25;4994814;28;20033;-80
2022/08/28 06:23:06;;;;;;;24.13;9.75;;;;;;;13.27;100.00;101533.16;4973998;28;20439;-80
2022/08/28 06:25:38;;;;;;;23.20;8.38;;;;;;;13.32;100.00;101542.44;5009801;28;20034;-80
2022/08/28 06:28:06;;;;;;;17.25;8.27;;;;;;;13.36;100.00;101551.00;5012712;28;20053;-80
2022/08/28 06:30:35;;;;;;;22.58;9.35;;;;;;;13.37;100.00;101550.84;4996077;28;20053;-81
2022/08/28 06:33:02;;;;;;;23.75;8.82;;;;;;;13.40;100.00;101552.38;4999732;28;20030;-80
2022/08/28 06:35:30;;;;;;;19.75;8.10;;;;;;;13.44;100.00;101559.09;5006918;28;20037;-80
2022/08/28 06:37:56;;;;;;;20.67;8.93;;;;;;;13.36;100.00;101545.59;4978707;28;20069;-80
2022/08/28 06:40:22;;;;;;;19.92;8.57;;;;;;;13.43;100.00;101551.16;5008634;28;20499;-80
2022/08/28 06:42:47;;;;;;;21.70;8.73;;;;;;;13.44;100.00;101548.28;4972150;28;20058;-80
2022/08/28 06:45:13;;;;;;;24.67;9.50;;;;;;;13.46;100.00;101545.41;4977793;28;20060;-80
2022/08/28 06:47:39;;;;;;;21.40;9.55;;;;;;;13.34;100.00;101526.91;5007667;28;20115;-80
2022/08/28 06:50:05;;;;;;;21.77;9.15;;;;;;;13.61;100.00;101565.28;5007907;28;20381;-80
2022/08/28 06:52:30;;;;;;;28.00;9.43;;;;;;;13.54;100.00;101556.19;5012039;28;20037;-81
2022/08/28 06:54:56;;;;;;;23.50;9.27;;;;;;;13.54;100.00;101559.72;4995394;28;20029;-81
2022/08/28 06:57:24;;;;;;;24.33;8.05;;;;;;;13.54;100.00;101557.00;5011793;28;20116;-80
2022/08/28 06:59:50;;;;;;;24.85;10.35;;;;;;;13.61;100.00;101560.72;4985950;28;20092;-80
2022/08/28 07:02:15;;;;;;;22.55;8.80;;;;;;;13.71;100.00;101578.59;4964189;28;20491;-81
2022/08/28 07:04:41;;;;;;;21.92;8.52;;;;;;;13.72;100.00;101580.25;4973805;28;20472;-82
2022/08/28 07:07:07;;;;;;;26.50;9.15;;;;;;;13.76;100.00;101584.28;5011671;28;20038;-80
2022/08/28 07:09:33;;;;;;;24.90;9.27;;;;;;;13.77;100.00;101576.00;5009471;28;20038;-80
2022/08/28 07:11:59;;;;;;;24.77;9.27;;;;;;;13.83;100.00;101580.69;4994649;28;20041;-80
2022/08/28 07:14:25;;;;;;;25.23;8.57;;;;;;;13.90;100.00;101583.53;4968149;28;20038;-80
2022/08/28 07:16:51;;;;;;;22.90;9.10;;;;;;;13.95;100.00;101578.44;5000290;28;20080;-79
2022/08/28 07:19:16;;;;;;;21.88;8.77;;;;;;;14.10;100.00;101591.19;4993531;28;20088;-80
2022/08/28 07:21:44;;;;;;;23.92;9.15;;;;;;;14.13;100.00;101575.47;4991322;28;20026;-80
2022/08/28 07:24:11;;;;;;;17.75;7.95;;;;;;;14.32;100.00;101584.97;5007200;28;20026;-80
2022/08/28 07:26:39;;;;;;;17.83;7.90;;;;;;;14.41;100.00;101583.88;4977252;28;20027;-80
2022/08/28 07:29:06;;;;;;;20.70;8.70;;;;;;;14.39;100.00;101574.25;4993447;28;20030;-80
2022/08/28 07:31:32;;;;;;;22.40;8.73;;;;;;;14.63;100.00;101587.63;4983236;28;20038;-80
2022/08/28 07:33:58;;;;;;;18.58;7.47;;;;;;;14.73;100.00;101581.94;4988537;28;20034;-79
2022/08/28 07:36:26;;;;;;;25.02;8.35;;;;;;;14.84;100.00;101591.50;4989833;28;20140;-79
2022/08/28 07:38:53;;;;;;;15.52;7.93;;;;;;;14.91;100.00;101592.44;4972985;28;20048;-80
2022/08/28 07:41:25;;;;;;;16.30;7.47;;;;;;;15.02;100.00;101602.81;4993254;28;20059;-80
2022/08/28 07:46:36;;;;;;;18.05;7.80;;;;;;;15.29;100.00;101587.81;4986659;28;20027;-80
2022/08/28 07:49:03;;;;;;;18.52;7.55;;;;;;;15.51;100.00;101594.16;4989079;28;20030;-78
2022/08/28 07:51:29;;;;;;;13.95;6.72;;;;;;;15.64;100.00;101565.53;4973127;28;20484;-79
2022/08/28 07:53:58;;;;;;;16.20;7.38;;;;;;;16.00;100.00;101592.72;5006943;28;20064;-79
2022/08/28 07:56:26;;;;;;;17.40;6.93;;;;;;;16.21;100.00;101598.16;4986360;28;20034;-78
2022/08/28 07:58:52;;;;;;;10.20;5.72;;;;;;;16.41;100.00;101597.53;4999300;28;20033;-79
2022/08/28 08:01:18;;;;;;;14.38;5.93;;;;;;;16.70;100.00;101596.56;4983776;28;20035;-79
2022/08/28 08:03:44;;;;;;;9.95;5.15;;;;;;;16.83;100.00;101593.13;4993520;28;20034;-79
2022/08/28 08:06:12;;;;;;;10.95;5.68;;;;;;;16.82;100.00;101577.88;4992184;28;20527;-79
2022/08/28 08:08:38;;;;;;;13.95;6.80;;;;;;;17.02;100.00;101583.47;4974336;28;20456;-79
2022/08/28 08:11:09;;;;;;;12.70;5.70;;;;;;;17.05;100.00;101593.94;4976476;28;20073;-79
2022/08/28 08:13:36;;;;;;;10.18;5.68;;;;;;;16.86;100.00;101596.28;4989627;28;20069;-79
2022/08/28 08:16:11;;;;;;;10.90;5.13;;;;;;;16.78;100.00;101603.75;5006488;28;20468;-79
2022/08/28 08:18:38;;;;;;;11.88;6.00;;;;;;;16.71;100.00;101603.66;4992935;28;20037;-80
2022/08/28 08:21:06;;;;;;;12.27;6.28;;;;;;;16.69;100.00;101594.84;4990163;28;20031;-79
2022/08/28 08:23:36;;;;;;;9.98;5.80;;;;;;;16.76;100.00;101603.91;4990157;28;20034;-79
2022/08/28 08:26:05;;;;;;;12.45;5.72;;;;;;;16.86;100.00;101609.88;4968304;28;20054;-79
2022/08/28 08:28:32;;;;;;;13.38;6.40;;;;;;;16.97;100.00;101618.53;5007953;28;20030;-79
2022/08/28 08:31:20;;;;;;;11.73;6.20;;;;;;;17.09;100.00;101616.94;4991894;28;20049;-79
2022/08/28 08:33:50;;;;;;;16.13;6.43;;;;;;;17.27;100.00;101625.41;4976105;28;20034;-79
2022/08/28 08:36:19;;;;;;;13.80;6.72;;;;;;;17.15;100.00;101588.97;4988030;28;20042;-79
2022/08/28 08:38:45;;;;;;;10.50;6.30;;;;;;;17.44;100.00;101611.50;4972795;28;20661;-79
2022/08/28 08:41:38;;;;;;;13.07;6.40;;;;;;;17.61;100.00;101615.59;5003694;28;20119;-80
2022/08/28 08:44:17;;;;;;;10.80;5.63;;;;;;;17.66;100.00;101613.09;4991270;28;20052;-80
2022/08/28 08:47:07;;;;;;;15.75;6.45;;;;;;;17.44;100.00;101592.47;4995676;28;20052;-79
2022/08/28 08:49:35;;;;;;;12.90;6.28;;;;;;;17.73;100.00;101624.00;4993007;28;20425;-79
2022/08/28 08:52:10;;;;;;;11.60;5.43;;;;;;;17.79;100.00;101612.38;4981095;28;20029;-79
2022/08/28 08:54:43;;;;;;;10.70;5.65;;;;;;;18.07;100.00;101625.00;4999590;28;20034;-79
2022/08/28 08:57:13;;;;;;;10.98;5.15;;;;;;;18.22;100.00;101623.81;4997775;28;20027;-79
2022/08/28 08:59:39;;;;;;;12.10;5.35;;;;;;;18.29;99.85;101629.28;4987960;28;20057;-80
2022/08/28 09:02:13;;;;;;;13.77;5.20;;;;;;;18.44;98.38;101619.06;4985441;28;20206;-79
2022/08/28 09:04:45;;;;;;;11.40;5.68;;;;;;;18.60;98.21;101620.53;4972976;28;20065;-79
2022/08/28 09:07:20;;;;;;;11.43;5.05;;;;;;;18.75;91.98;101631.25;4970390;28;20042;-78
2022/08/28 09:09:50;;;;;;;10.02;4.93;;;;;;;18.76;91.96;101629.34;5007145;28;20034;-78
2022/08/28 09:12:24;;;;;;;9.32;5.00;;;;;;;18.79;89.09;101629.81;4992129;28;20038;-80
2022/08/28 09:15:07;;;;;;;9.55;4.57;;;;;;;18.63;88.90;101600.22;5005265;28;20042;-79
2022/08/28 09:17:48;;;;;;;10.88;5.53;;;;;;;18.94;89.52;101632.31;4984041;28;20116;-79
2022/08/28 09:20:19;;;;;;;9.63;4.72;;;;;;;19.13;89.63;101633.34;4986854;28;20041;-79
2022/08/28 09:22:50;;;;;;;7.82;4.72;;;;;;;19.30;89.45;101629.13;4990712;28;20030;-79
2022/08/28 09:25:54;;;;;;;8.30;4.40;;;;;;;19.41;84.60;101632.25;5002016;28;20034;-81
2022/08/28 09:28:33;;;;;;;10.30;5.00;;;;;;;19.45;86.87;101636.22;4996122;28;20034;-79
2022/08/28 09:31:14;;;;;;;13.70;4.82;;;;;;;19.52;87.64;101645.22;4972727;28;20042;-80
2022/08/28 09:33:50;;;;;;;8.10;4.78;;;;;;;19.63;87.13;101639.09;5009199;28;20133;-76
2022/08/28 09:36:22;;;;;;;10.13;4.80;;;;;;;19.83;85.94;101638.25;4993006;28;20121;-76
2022/08/28 09:39:08;;;;;;;6.38;3.95;;;;;;;20.12;81.35;101629.50;5001007;28;20124;-75
2022/08/28 09:44:50;;;;;;;7.80;4.40;;;;;;;20.35;75.31;101633.56;5008372;28;20026;-76
2022/08/28 09:47:39;;;;;;;10.02;5.25;;;;;;;20.17;73.60;101599.66;4968100;28;20041;-75
2022/08/28 09:50:19;;;;;;;9.55;5.05;;;;;;;20.60;69.85;101642.69;4991321;28;20030;-75
2022/08/28 09:52:46;;;;;;;5.82;3.80;;;;;;;20.78;70.31;101641.09;4967618;28;20034;-76
2022/08/28 09:55:26;;;;;;;11.05;4.15;;;;;;;20.82;67.81;101642.31;4987223;28;20034;-75
2022/08/28 09:57:53;;;;;;;8.13;4.75;;;;;;;21.02;68.37;101633.97;4991932;28;20034;-76
2022/08/28 10:00:19;;;;;;;5.32;3.30;;;;;;;21.26;64.16;101640.47;4984378;28;20044;-76
2022/08/28 10:03:33;;;;;;;6.00;3.75;;;;;;;21.12;65.14;101638.91;4968958;28;20038;-75
2022/08/28 10:06:13;;;;;;;7.30;4.13;;;;;;;21.21;67.60;101648.50;4968382;28;20089;-75
2022/08/28 10:08:38;;;;;;;8.98;3.95;;;;;;;21.42;64.57;101639.06;4981344;28;20112;-74
2022/08/28 10:11:46;;;;;;;5.50;3.85;;;;;;;21.39;64.26;101643.09;4995706;28;20573;-73
2022/08/28 10:14:20;;;;;;;5.90;3.90;;;;;;;21.32;62.37;101647.75;4980787;28;20054;-74
2022/08/28 10:17:00;;;;;;;6.28;3.22;;;;;;;21.26;62.45;101646.75;5000950;28;20034;-73
2022/08/28 10:19:38;;;;;;;5.60;3.17;;;;;;;21.27;61.37;101645.69;4974851;28;20500;-73
2022/08/28 10:22:33;;;;;;;4.50;3.38;;;;;;;21.25;62.88;101638.81;4990169;28;20026;-74
2022/08/28 10:25:18;;;;;;;6.40;3.33;;;;;;;21.26;61.44;101637.72;5003237;28;20465;-74
2022/08/28 10:28:10;;;;;;;6.07;3.55;;;;;;;21.12;61.55;101633.44;5011360;28;20030;-74
2022/08/28 10:30:41;;;;;;;;;;;;;;;21.07;61.73;101643.16;4990960;28;20030;-75
2022/08/28 10:33:31;;;;;;;7.38;3.75;;;;;;;21.04;60.44;101629.09;5010775;28;19924;-74
2022/08/28 10:36:06;;;;;;;6.60;3.08;;;;;;;20.95;61.92;101644.94;4994561;28;20460;-74
2022/08/28 10:39:22;;;;;;;7.70;3.15;;;;;;;20.76;61.61;101629.53;5007013;28;20121;-74
2022/08/28 10:41:56;;;;;;;5.80;3.40;;;;;;;20.61;63.75;101648.97;5008831;28;20449;-75
2022/08/28 10:44:30;;;;;;;6.00;4.22;;;;;;;20.59;64.50;101640.19;4992207;28;20038;-74
2022/08/28 10:46:57;;;;;;;11.20;3.83;;;;;;;20.65;64.70;101650.22;4990797;28;20069;-75
2022/08/28 10:49:25;;;;;;;3.65;2.85;;;;;;;20.64;63.44;101645.84;4994111;28;20057;-75
2022/08/28 10:52:22;;;;;;;8.45;3.75;;;;;;;20.68;64.53;101646.22;5012386;28;20089;-75
2022/08/28 10:54:56;;;;;;;5.95;3.00;;;;;;;20.76;64.06;101649.50;4990638;28;20468;-75
2022/08/28 10:57:44;;;;;;;6.53;3.58;;;;;;;20.95;64.17;101641.38;5009651;28;20042;-74
2022/08/28 11:00:14;;;;;;;4.32;3.20;;;;;;;21.04;62.75;101640.03;4984233;28;20038;-74
2022/08/28 11:02:43;;;;;;;5.85;3.28;;;;;;;21.23;63.13;101649.94;4987347;28;20037;-74
2022/08/28 11:05:10;;;;;;;5.90;3.63;;;;;;;21.45;61.70;101641.34;4968259;28;20073;-75
2022/08/28 11:07:37;;;;;;;5.30;4.63;;;;;;;21.65;61.56;101628.28;4986318;28;20056;-74
2022/08/28 11:10:23;;;;;;;5.22;3.08;;;;;;;22.00;60.90;101643.25;4966881;28;20026;-75
2022/08/28 11:12:50;;;;;;;4.13;3.05;;;;;;;22.20;59.91;101646.56;5002568;28;20065;-74
2022/08/28 11:15:26;;;;;;;7.13;3.83;;;;;;;22.52;59.42;101649.94;5003654;28;20038;-75
2022/08/28 11:17:58;;;;;;;6.20;3.30;;;;;;;22.70;57.80;101649.00;4991418;28;20025;-74
2022/08/28 11:20:29;;;;;;;5.50;2.97;;;;;;;22.86;58.00;101652.97;4989816;28;20045;-75
2022/08/28 11:23:06;;;;;;;7.75;3.47;;;;;;;23.10;55.94;101645.66;4991827;28;20042;-75
2022/08/28 11:25:57;;;;;;;5.10;3.20;;;;;;;23.26;55.23;101650.41;4985997;28;20132;-75
2022/08/28 11:28:31;;;;;;;6.00;3.38;;;;;;;23.41;53.43;101651.84;5008017;28;20038;-75
2022/08/28 11:31:09;;;;;;;4.43;3.10;;;;;;;23.38;53.54;101649.56;4990738;28;20037;-75
2022/08/28 11:33:38;;;;;;;4.88;2.53;;;;;;;23.28;53.97;101639.19;5004389;28;20072;-74
2022/08/28 11:36:20;;;;;;;5.63;2.75;;;;;;;23.55;52.88;101645.03;4995715;28;20037;-75
2022/08/28 11:38:52;;;;;;;4.57;2.88;;;;;;;23.88;52.93;101655.38;4991149;28;20042;-75